sensor_id;sensor_type;location;lat;lon;timestamp;pressure;altitude;pressure_sealevel;temperature;humidity
60489;BME280;46331;49.252;8.904;2024-02-23T00:00:14;97640.34;;;8.73;nan
60489;BME280;46331;49.252;8.904;2024-02-23T00:00:57;97635.59;;;8.70;nan
60489;BME280;46331;49.252;8.904;2024-02-23T00:01:37;97645.09;;;8.71;nan
60489;BME280;46331;49.252;8.904;2024-02-23T00:02:18;97644.09;;;8.67;nan
60489;BME280;46331;49.252;8.904;2024-02-23T00:02:59;97649.38;;;8.62;nan
60489;BME280;46331;49.252;8.904;2024-02-23T00:03:40;97658.63;;;8.65;nan
60489;BME280;46331;49.252;8.904;2024-02-23T00:04:20;97647.28;;;8.64;nan
60489;BME280;46331;49.252;8.904;2024-02-23T00:05:01;97643.00;;;8.68;nan
60489;BME280;46331;49.252;8.904;2024-02-23T00:05:41;97646.44;;;8.69;nan
60489;BME280;46331;49.252;8.904;2024-02-23T00:06:22;97647.50;;;8.68;nan
60489;BME280;46331;49.252;8.904;2024-02-23T00:07:07;97651.22;;;8.67;nan
60489;BME280;46331;49.252;8.904;2024-02-23T00:07:48;97659.66;;;8.69;nan
60489;BME280;46331;49.252;8.904;2024-02-23T00:08:29;97662.59;;;8.67;nan
60489;BME280;46331;49.252;8.904;2024-02-23T00:09:09;97671.78;;;8.70;nan
60489;BME280;46331;49.252;8.904;2024-02-23T00:09:50;97660.22;;;8.61;nan
60489;BME280;46331;49.252;8.904;2024-02-23T00:10:31;97664.47;;;8.62;nan
60489;BME280;46331;49.252;8.904;2024-02-23T00:11:11;97662.06;;;8.65;nan
60489;BME280;46331;49.252;8.904;2024-02-23T00:11:52;97668.66;;;8.68;nan
60489;BME280;46331;49.252;8.904;2024-02-23T00:12:33;97671.84;;;8.65;nan
60489;BME280;46331;49.252;8.904;2024-02-23T00:13:14;97681.69;;;8.54;nan
60489;BME280;46331;49.252;8.904;2024-02-23T00:13:54;97679.34;;;8.42;nan
60489;BME280;46331;49.252;8.904;2024-02-23T00:14:35;97683.50;;;8.58;nan
60489;BME280;46331;49.252;8.904;2024-02-23T00:15:16;97686.66;;;8.61;nan
60489;BME280;46331;49.252;8.904;2024-02-23T00:15:57;97684.00;;;8.61;nan
60489;BME280;46331;49.252;8.904;2024-02-23T00:16:40;97682.19;;;8.61;nan
60489;BME280;46331;49.252;8.904;2024-02-23T00:17:21;97677.47;;;8.53;nan
60489;BME280;46331;49.252;8.904;2024-02-23T00:18:02;97677.25;;;8.44;nan
60489;BME280;46331;49.252;8.904;2024-02-23T00:18:44;97676.47;;;8.44;nan
60489;BME280;46331;49.252;8.904;2024-02-23T00:19:25;97678.00;;;8.50;nan
60489;BME280;46331;49.252;8.904;2024-02-23T00:20:08;97680.38;;;8.51;nan
60489;BME280;46331;49.252;8.904;2024-02-23T00:20:51;97677.78;;;8.46;nan
60489;BME280;46331;49.252;8.904;2024-02-23T00:21:31;97676.44;;;8.49;nan
60489;BME280;46331;49.252;8.904;2024-02-23T00:22:12;97670.91;;;8.40;nan
60489;BME280;46331;49.252;8.904;2024-02-23T00:22:52;97686.75;;;8.50;nan
60489;BME280;46331;49.252;8.904;2024-02-23T00:23:34;97673.03;;;8.38;nan
60489;BME280;46331;49.252;8.904;2024-02-23T00:24:14;97669.34;;;8.44;nan
60489;BME280;46331;49.252;8.904;2024-02-23T00:24:56;97679.34;;;8.42;nan
60489;BME280;46331;49.252;8.904;2024-02-23T00:25:37;97673.06;;;8.33;nan
60489;BME280;46331;49.252;8.904;2024-02-23T00:26:17;97666.94;;;8.37;nan
60489;BME280;46331;49.252;8.904;2024-02-23T00:26:58;97670.75;;;8.21;nan
60489;BME280;46331;49.252;8.904;2024-02-23T00:27:39;97669.13;;;8.30;nan
60489;BME280;46331;49.252;8.904;2024-02-23T00:28:22;97670.13;;;8.34;nan
60489;BME280;46331;49.252;8.904;2024-02-23T00:29:02;97664.84;;;8.34;nan
60489;BME280;46331;49.252;8.904;2024-02-23T00:29:43;97662.81;;;8.26;nan
60489;BME280;46331;49.252;8.904;2024-02-23T00:30:24;97660.88;;;8.37;nan
60489;BME280;46331;49.252;8.904;2024-02-23T00:31:05;97660.97;;;8.21;nan
60489;BME280;46331;49.252;8.904;2024-02-23T00:31:45;97667.03;;;8.27;nan
60489;BME280;46331;49.252;8.904;2024-02-23T00:32:26;97673.59;;;8.30;nan
60489;BME280;46331;49.252;8.904;2024-02-23T00:33:06;97675.72;;;8.28;nan
60489;BME280;46331;49.252;8.904;2024-02-23T00:33:47;97688.94;;;8.28;nan
60489;BME280;46331;49.252;8.904;2024-02-23T00:34:28;97699.72;;;8.31;nan
60489;BME280;46331;49.252;8.904;2024-02-23T00:35:10;97691.09;;;8.15;nan
60489;BME280;46331;49.252;8.904;2024-02-23T00:35:51;97691.63;;;8.17;nan
60489;BME280;46331;49.252;8.904;2024-02-23T00:36:42;97707.94;;;8.30;nan
60489;BME280;46331;49.252;8.904;2024-02-23T00:37:24;97699.53;;;8.22;nan
60489;BME280;46331;49.252;8.904;2024-02-23T00:38:05;97693.44;;;8.22;nan
60489;BME280;46331;49.252;8.904;2024-02-23T00:38:47;97715.66;;;8.21;nan
60489;BME280;46331;49.252;8.904;2024-02-23T00:39:28;97707.72;;;8.21;nan
60489;BME280;46331;49.252;8.904;2024-02-23T00:40:09;97717.00;;;8.13;nan
60489;BME280;46331;49.252;8.904;2024-02-23T00:40:50;97711.94;;;8.22;nan
60489;BME280;46331;49.252;8.904;2024-02-23T00:41:31;97717.25;;;8.17;nan
60489;BME280;46331;49.252;8.904;2024-02-23T00:42:12;97717.47;;;8.20;nan
60489;BME280;46331;49.252;8.904;2024-02-23T00:42:52;97707.47;;;8.17;nan
60489;BME280;46331;49.252;8.904;2024-02-23T00:43:41;97715.31;;;8.33;nan
60489;BME280;46331;49.252;8.904;2024-02-23T00:44:22;97711.66;;;8.23;nan
60489;BME280;46331;49.252;8.904;2024-02-23T00:45:03;97713.25;;;8.24;nan
60489;BME280;46331;49.252;8.904;2024-02-23T00:45:44;97729.91;;;8.20;nan
60489;BME280;46331;49.252;8.904;2024-02-23T00:46:24;97715.09;;;8.24;nan
60489;BME280;46331;49.252;8.904;2024-02-23T00:47:05;97719.84;;;8.27;nan
60489;BME280;46331;49.252;8.904;2024-02-23T00:47:46;97719.31;;;8.25;nan
60489;BME280;46331;49.252;8.904;2024-02-23T00:48:27;97730.69;;;8.20;nan
60489;BME280;46331;49.252;8.904;2024-02-23T00:49:08;97718.03;;;8.17;nan
60489;BME280;46331;49.252;8.904;2024-02-23T00:49:49;97711.19;;;8.16;nan
60489;BME280;46331;49.252;8.904;2024-02-23T00:50:29;97716.47;;;8.16;nan
60489;BME280;46331;49.252;8.904;2024-02-23T00:51:10;97710.09;;;8.17;nan
60489;BME280;46331;49.252;8.904;2024-02-23T00:51:50;97707.47;;;8.17;nan
60489;BME280;46331;49.252;8.904;2024-02-23T00:52:31;97711.72;;;8.13;nan
60489;BME280;46331;49.252;8.904;2024-02-23T00:53:12;97711.44;;;8.15;nan
60489;BME280;46331;49.252;8.904;2024-02-23T00:53:53;97715.16;;;8.03;nan
60489;BME280;46331;49.252;8.904;2024-02-23T00:54:34;97713.03;;;8.11;nan
60489;BME280;46331;49.252;8.904;2024-02-23T00:55:14;97712.25;;;8.10;nan
60489;BME280;46331;49.252;8.904;2024-02-23T00:55:55;97709.63;;;8.10;nan
60489;BME280;46331;49.252;8.904;2024-02-23T00:56:35;97712.78;;;8.12;nan
60489;BME280;46331;49.252;8.904;2024-02-23T00:57:16;97711.72;;;8.13;nan
60489;BME280;46331;49.252;8.904;2024-02-23T00:57:58;97706.47;;;8.03;nan
60489;BME280;46331;49.252;8.904;2024-02-23T00:58:39;97705.97;;;8.01;nan
60489;BME280;46331;49.252;8.904;2024-02-23T00:59:20;97699.34;;;8.03;nan
60489;BME280;46331;49.252;8.904;2024-02-23T01:00:01;97710.97;;;7.97;nan
60489;BME280;46331;49.252;8.904;2024-02-23T01:00:45;97711.25;;;8.01;nan
60489;BME280;46331;49.252;8.904;2024-02-23T01:01:25;97713.34;;;8.04;nan
60489;BME280;46331;49.252;8.904;2024-02-23T01:02:07;97712.56;;;7.98;nan
60489;BME280;46331;49.252;8.904;2024-02-23T01:02:47;97725.22;;;8.01;nan
60489;BME280;46331;49.252;8.904;2024-02-23T01:03:28;97716.25;;;7.97;nan
60489;BME280;46331;49.252;8.904;2024-02-23T01:04:08;97721.81;;;8.01;nan
60489;BME280;46331;49.252;8.904;2024-02-23T01:04:51;97713.06;;;8.00;nan
60489;BME280;46331;49.252;8.904;2024-02-23T01:05:37;97711.50;;;7.94;nan
60489;BME280;46331;49.252;8.904;2024-02-23T01:06:18;97727.63;;;7.93;nan
60489;BME280;46331;49.252;8.904;2024-02-23T01:06:59;97722.34;;;7.87;nan
60489;BME280;46331;49.252;8.904;2024-02-23T01:07:40;97729.72;;;7.85;nan
60489;BME280;46331;49.252;8.904;2024-02-23T01:08:20;97731.84;;;7.88;nan
60489;BME280;46331;49.252;8.904;2024-02-23T01:09:01;97734.25;;;7.90;nan
60489;BME280;46331;49.252;8.904;2024-02-23T01:09:42;97741.34;;;7.90;nan
60489;BME280;46331;49.252;8.904;2024-02-23T01:10:22;97738.97;;;7.88;nan
60489;BME280;46331;49.252;8.904;2024-02-23T01:11:03;97738.97;;;7.88;nan
60489;BME280;46331;49.252;8.904;2024-02-23T01:11:43;97744.81;;;7.80;nan
60489;BME280;46331;49.252;8.904;2024-02-23T01:12:24;97735.56;;;7.77;nan
60489;BME280;46331;49.252;8.904;2024-02-23T01:13:05;97744.28;;;7.78;nan
60489;BME280;46331;49.252;8.904;2024-02-23T01:13:45;97744.81;;;7.80;nan
60489;BME280;46331;49.252;8.904;2024-02-23T01:14:26;97742.94;;;7.80;nan
60489;BME280;46331;49.252;8.904;2024-02-23T01:15:07;97741.63;;;7.78;nan
60489;BME280;46331;49.252;8.904;2024-02-23T01:15:47;97743.22;;;7.79;nan
60489;BME280;46331;49.252;8.904;2024-02-23T01:16:28;97743.78;;;7.70;nan
60489;BME280;46331;49.252;8.904;2024-02-23T01:17:09;97741.63;;;7.78;nan
60489;BME280;46331;49.252;8.904;2024-02-23T01:17:49;97735.31;;;7.74;nan
60489;BME280;46331;49.252;8.904;2024-02-23T01:18:30;97732.97;;;7.72;nan
60489;BME280;46331;49.252;8.904;2024-02-23T01:19:10;97731.63;;;7.69;nan
60489;BME280;46331;49.252;8.904;2024-02-23T01:19:51;97730.59;;;7.70;nan
60489;BME280;46331;49.252;8.904;2024-02-23T01:20:32;97738.25;;;7.62;nan
60489;BME280;46331;49.252;8.904;2024-02-23T01:21:13;97738.75;;;7.64;nan
60489;BME280;46331;49.252;8.904;2024-02-23T01:21:54;97743.75;;;7.65;nan
60489;BME280;46331;49.252;8.904;2024-02-23T01:22:39;97733.50;;;7.59;nan
60489;BME280;46331;49.252;8.904;2024-02-23T01:23:20;97743.28;;;7.58;nan
60489;BME280;46331;49.252;8.904;2024-02-23T01:24:00;97729.81;;;7.60;nan
60489;BME280;46331;49.252;8.904;2024-02-23T01:24:41;97735.34;;;7.63;nan
60489;BME280;46331;49.252;8.904;2024-02-23T01:25:22;97735.59;;;7.62;nan
60489;BME280;46331;49.252;8.904;2024-02-23T01:26:02;97730.06;;;7.63;nan
60489;BME280;46331;49.252;8.904;2024-02-23T01:26:43;97738.22;;;7.67;nan
60489;BME280;46331;49.252;8.904;2024-02-23T01:27:24;97744.84;;;7.64;nan
60489;BME280;46331;49.252;8.904;2024-02-23T01:28:04;97741.66;;;7.67;nan
60489;BME280;46331;49.252;8.904;2024-02-23T01:28:45;97734.28;;;7.64;nan
60489;BME280;46331;49.252;8.904;2024-02-23T01:29:26;97736.91;;;7.69;nan
60489;BME280;46331;49.252;8.904;2024-02-23T01:30:07;97736.66;;;7.66;nan
60489;BME280;46331;49.252;8.904;2024-02-23T01:30:48;97730.06;;;7.63;nan
60489;BME280;46331;49.252;8.904;2024-02-23T01:31:29;97734.03;;;7.66;nan
60489;BME280;46331;49.252;8.904;2024-02-23T01:32:09;97726.91;;;7.61;nan
60489;BME280;46331;49.252;8.904;2024-02-23T01:32:50;97730.84;;;7.64;nan
60489;BME280;46331;49.252;8.904;2024-02-23T01:33:31;97736.41;;;7.57;nan
60489;BME280;46331;49.252;8.904;2024-02-23T01:34:11;97741.16;;;7.50;nan
60489;BME280;46331;49.252;8.904;2024-02-23T01:34:52;97741.41;;;7.48;nan
60489;BME280;46331;49.252;8.904;2024-02-23T01:35:32;97742.75;;;7.46;nan
60489;BME280;46331;49.252;8.904;2024-02-23T01:36:13;97746.16;;;7.57;nan
60489;BME280;46331;49.252;8.904;2024-02-23T01:36:54;97758.84;;;7.44;nan
60489;BME280;46331;49.252;8.904;2024-02-23T01:37:35;97755.41;;;7.49;nan
60489;BME280;46331;49.252;8.904;2024-02-23T01:38:15;97761.47;;;7.49;nan
60489;BME280;46331;49.252;8.904;2024-02-23T01:39:00;97761.97;;;7.51;nan
60489;BME280;46331;49.252;8.904;2024-02-23T01:39:41;97765.16;;;7.48;nan
60489;BME280;46331;49.252;8.904;2024-02-23T01:40:21;97760.69;;;7.49;nan
60489;BME280;46331;49.252;8.904;2024-02-23T01:41:02;97761.72;;;7.53;nan
60489;BME280;46331;49.252;8.904;2024-02-23T01:41:43;97760.13;;;7.47;nan
60489;BME280;46331;49.252;8.904;2024-02-23T01:42:24;97760.94;;;7.47;nan
60489;BME280;46331;49.252;8.904;2024-02-23T01:43:06;97767.03;;;7.43;nan
60489;BME280;46331;49.252;8.904;2024-02-23T01:43:46;97764.63;;;7.46;nan
60489;BME280;46331;49.252;8.904;2024-02-23T01:44:27;97766.75;;;7.49;nan
60489;BME280;46331;49.252;8.904;2024-02-23T01:45:08;97768.84;;;7.52;nan
60489;BME280;46331;49.252;8.904;2024-02-23T01:45:48;97763.56;;;7.52;nan
60489;BME280;46331;49.252;8.904;2024-02-23T01:46:29;97765.44;;;7.52;nan
60489;BME280;46331;49.252;8.904;2024-02-23T01:47:11;97763.56;;;7.58;nan
60489;BME280;46331;49.252;8.904;2024-02-23T01:47:51;97754.88;;;7.47;nan
60489;BME280;46331;49.252;8.904;2024-02-23T01:48:32;97759.34;;;7.51;nan
60489;BME280;46331;49.252;8.904;2024-02-23T01:49:13;97772.03;;;7.49;nan
60489;BME280;46331;49.252;8.904;2024-02-23T01:49:54;97763.06;;;7.50;nan
60489;BME280;46331;49.252;8.904;2024-02-23T01:50:36;97769.13;;;7.41;nan
60489;BME280;46331;49.252;8.904;2024-02-23T01:51:17;97763.56;;;7.27;nan
60489;BME280;46331;49.252;8.904;2024-02-23T01:51:58;97769.38;;;7.39;nan
60489;BME280;46331;49.252;8.904;2024-02-23T01:52:39;97759.88;;;7.43;nan
60489;BME280;46331;49.252;8.904;2024-02-23T01:53:20;97771.75;;;7.36;nan
60489;BME280;46331;49.252;8.904;2024-02-23T01:54:01;97776.50;;;7.44;nan
60489;BME280;46331;49.252;8.904;2024-02-23T01:54:44;97774.38;;;7.41;nan
60489;BME280;46331;49.252;8.904;2024-02-23T01:55:25;97788.66;;;7.40;nan
60489;BME280;46331;49.252;8.904;2024-02-23T01:56:06;97776.25;;;7.40;nan
60489;BME280;46331;49.252;8.904;2024-02-23T01:56:47;97784.16;;;7.40;nan
60489;BME280;46331;49.252;8.904;2024-02-23T01:57:28;97791.78;;;7.47;nan
60489;BME280;46331;49.252;8.904;2024-02-23T01:58:09;97788.63;;;7.50;nan
60489;BME280;46331;49.252;8.904;2024-02-23T01:58:49;97792.06;;;7.50;nan
60489;BME280;46331;49.252;8.904;2024-02-23T01:59:30;97802.34;;;7.52;nan
60489;BME280;46331;49.252;8.904;2024-02-23T02:00:15;97785.47;;;7.58;nan
60489;BME280;46331;49.252;8.904;2024-02-23T02:01:00;97794.44;;;7.52;nan
60489;BME280;46331;49.252;8.904;2024-02-23T02:01:42;97794.19;;;7.54;nan
60489;BME280;46331;49.252;8.904;2024-02-23T02:02:23;97802.88;;;7.44;nan
60489;BME280;46331;49.252;8.904;2024-02-23T02:03:04;97798.38;;;7.39;nan
60489;BME280;46331;49.252;8.904;2024-02-23T02:03:45;97800.75;;;7.41;nan
60489;BME280;46331;49.252;8.904;2024-02-23T02:04:25;97791.00;;;7.36;nan
60489;BME280;46331;49.252;8.904;2024-02-23T02:05:06;97816.84;;;7.34;nan
60489;BME280;46331;49.252;8.904;2024-02-23T02:05:48;97792.06;;;7.35;nan
60489;BME280;46331;49.252;8.904;2024-02-23T02:06:30;97798.13;;;7.36;nan
60489;BME280;46331;49.252;8.904;2024-02-23T02:07:11;97799.72;;;7.42;nan
60489;BME280;46331;49.252;8.904;2024-02-23T02:07:53;97792.31;;;7.39;nan
60489;BME280;46331;49.252;8.904;2024-02-23T02:08:34;97799.97;;;7.40;nan
60489;BME280;46331;49.252;8.904;2024-02-23T02:09:15;97790.47;;;7.39;nan
60489;BME280;46331;49.252;8.904;2024-02-23T02:09:56;97783.38;;;7.40;nan
60489;BME280;46331;49.252;8.904;2024-02-23T02:10:36;97796.53;;;7.45;nan
60489;BME280;46331;49.252;8.904;2024-02-23T02:11:17;97791.00;;;7.36;nan
60489;BME280;46331;49.252;8.904;2024-02-23T02:11:57;97783.09;;;7.31;nan
60489;BME280;46331;49.252;8.904;2024-02-23T02:12:38;97784.16;;;7.35;nan
60489;BME280;46331;49.252;8.904;2024-02-23T02:13:19;97777.31;;;7.29;nan
60489;BME280;46331;49.252;8.904;2024-02-23T02:13:59;97775.72;;;7.33;nan
60489;BME280;46331;49.252;8.904;2024-02-23T02:14:40;97782.81;;;7.38;nan
60489;BME280;46331;49.252;8.904;2024-02-23T02:15:20;97787.06;;;7.39;nan
60489;BME280;46331;49.252;8.904;2024-02-23T02:16:02;97789.44;;;7.35;nan
60489;BME280;46331;49.252;8.904;2024-02-23T02:16:43;97785.72;;;7.36;nan
60489;BME280;46331;49.252;8.904;2024-02-23T02:17:24;97783.34;;;7.34;nan
60489;BME280;46331;49.252;8.904;2024-02-23T02:18:05;97796.81;;;7.38;nan
60489;BME280;46331;49.252;8.904;2024-02-23T02:18:45;97793.09;;;7.39;nan
60489;BME280;46331;49.252;8.904;2024-02-23T02:19:26;97802.34;;;7.37;nan
60489;BME280;46331;49.252;8.904;2024-02-23T02:20:11;97796.03;;;7.32;nan
60489;BME280;46331;49.252;8.904;2024-02-23T02:20:56;97793.09;;;7.39;nan
60489;BME280;46331;49.252;8.904;2024-02-23T02:21:38;97789.16;;;7.37;nan
60489;BME280;46331;49.252;8.904;2024-02-23T02:22:19;97791.53;;;7.33;nan
60489;BME280;46331;49.252;8.904;2024-02-23T02:23:02;97786.28;;;7.38;nan
60489;BME280;46331;49.252;8.904;2024-02-23T02:23:43;97796.56;;;7.40;nan
60489;BME280;46331;49.252;8.904;2024-02-23T02:24:24;97792.84;;;7.36;nan
60489;BME280;46331;49.252;8.904;2024-02-23T02:25:05;97796.81;;;7.33;nan
60489;BME280;46331;49.252;8.904;2024-02-23T02:25:52;97808.69;;;7.46;nan
60489;BME280;46331;49.252;8.904;2024-02-23T02:26:34;97804.47;;;7.40;nan
60489;BME280;46331;49.252;8.904;2024-02-23T02:27:15;97795.47;;;7.41;nan
60489;BME280;46331;49.252;8.904;2024-02-23T02:27:56;97803.66;;;7.39;nan
60489;BME280;46331;49.252;8.904;2024-02-23T02:28:36;97817.38;;;7.41;nan
60489;BME280;46331;49.252;8.904;2024-02-23T02:29:17;97808.41;;;7.42;nan
60489;BME280;46331;49.252;8.904;2024-02-23T02:29:57;97813.41;;;7.44;nan
60489;BME280;46331;49.252;8.904;2024-02-23T02:30:38;97807.09;;;7.45;nan
60489;BME280;46331;49.252;8.904;2024-02-23T02:31:19;97816.88;;;7.44;nan
60489;BME280;46331;49.252;8.904;2024-02-23T02:31:59;97819.25;;;7.46;nan
60489;BME280;46331;49.252;8.904;2024-02-23T02:32:40;97814.75;;;7.46;nan
60489;BME280;46331;49.252;8.904;2024-02-23T02:33:21;97815.78;;;7.45;nan
60489;BME280;46331;49.252;8.904;2024-02-23T02:34:03;97810.50;;;7.45;nan
60489;BME280;46331;49.252;8.904;2024-02-23T02:34:44;97819.25;;;7.46;nan
60489;BME280;46331;49.252;8.904;2024-02-23T02:35:24;97818.72;;;7.49;nan
60489;BME280;46331;49.252;8.904;2024-02-23T02:36:05;97814.72;;;7.51;nan
60489;BME280;46331;49.252;8.904;2024-02-23T02:36:46;97818.69;;;7.54;nan
60489;BME280;46331;49.252;8.904;2024-02-23T02:37:26;97823.69;;;7.45;nan
60489;BME280;46331;49.252;8.904;2024-02-23T02:38:07;97820.53;;;7.43;nan
60489;BME280;46331;49.252;8.904;2024-02-23T02:38:47;97811.31;;;7.56;nan
60489;BME280;46331;49.252;8.904;2024-02-23T02:39:28;97821.63;;;7.63;nan
60489;BME280;46331;49.252;8.904;2024-02-23T02:40:09;97819.50;;;7.60;nan
60489;BME280;46331;49.252;8.904;2024-02-23T02:40:49;97822.13;;;7.60;nan
60489;BME280;46331;49.252;8.904;2024-02-23T02:41:30;97817.91;;;7.59;nan
60489;BME280;46331;49.252;8.904;2024-02-23T02:42:10;97823.44;;;7.57;nan
60489;BME280;46331;49.252;8.904;2024-02-23T02:42:51;97813.16;;;7.40;nan
60489;BME280;46331;49.252;8.904;2024-02-23T02:43:32;97819.75;;;7.53;nan
60489;BME280;46331;49.252;8.904;2024-02-23T02:44:12;97834.25;;;7.56;nan
60489;BME280;46331;49.252;8.904;2024-02-23T02:44:54;97823.19;;;7.54;nan
60489;BME280;46331;49.252;8.904;2024-02-23T02:45:34;97825.81;;;7.59;nan
60489;BME280;46331;49.252;8.904;2024-02-23T02:46:15;97828.72;;;7.62;nan
60489;BME280;46331;49.252;8.904;2024-02-23T02:46:56;97825.03;;;7.68;nan
60489;BME280;46331;49.252;8.904;2024-02-23T02:47:37;97816.34;;;7.63;nan
60489;BME280;46331;49.252;8.904;2024-02-23T02:48:18;97836.88;;;7.61;nan
60489;BME280;46331;49.252;8.904;2024-02-23T02:48:59;97833.72;;;7.64;nan
60489;BME280;46331;49.252;8.904;2024-02-23T02:49:40;97823.44;;;7.62;nan
60489;BME280;46331;49.252;8.904;2024-02-23T02:50:20;97827.94;;;7.57;nan
60489;BME280;46331;49.252;8.904;2024-02-23T02:51:01;97830.03;;;7.55;nan
60489;BME280;46331;49.252;8.904;2024-02-23T02:51:42;97833.22;;;7.57;nan
60489;BME280;46331;49.252;8.904;2024-02-23T02:52:23;97831.63;;;7.56;nan
60489;BME280;46331;49.252;8.904;2024-02-23T02:53:04;97824.22;;;7.58;nan
60489;BME280;46331;49.252;8.904;2024-02-23T02:53:44;97826.09;;;7.57;nan
60489;BME280;46331;49.252;8.904;2024-02-23T02:54:25;97817.66;;;7.60;nan
60489;BME280;46331;49.252;8.904;2024-02-23T02:55:06;97822.13;;;7.55;nan
60489;BME280;46331;49.252;8.904;2024-02-23T02:55:46;97825.28;;;7.51;nan
60489;BME280;46331;49.252;8.904;2024-02-23T02:56:29;97823.19;;;7.59;nan
60489;BME280;46331;49.252;8.904;2024-02-23T02:57:10;97821.06;;;7.56;nan
60489;BME280;46331;49.252;8.904;2024-02-23T02:57:50;97826.09;;;7.57;nan
60489;BME280;46331;49.252;8.904;2024-02-23T02:58:31;97817.63;;;7.50;nan
60489;BME280;46331;49.252;8.904;2024-02-23T02:59:12;97817.09;;;7.53;nan
60489;BME280;46331;49.252;8.904;2024-02-23T02:59:53;97823.97;;;7.59;nan
60489;BME280;46331;49.252;8.904;2024-02-23T03:00:33;97819.50;;;7.60;nan
60489;BME280;46331;49.252;8.904;2024-02-23T03:01:14;97825.81;;;7.59;nan
60489;BME280;46331;49.252;8.904;2024-02-23T03:01:55;97823.44;;;7.57;nan
60489;BME280;46331;49.252;8.904;2024-02-23T03:02:37;97824.75;;;7.55;nan
60489;BME280;46331;49.252;8.904;2024-02-23T03:03:18;97828.19;;;7.60;nan
60489;BME280;46331;49.252;8.904;2024-02-23T03:03:58;97835.56;;;7.53;nan
60489;BME280;46331;49.252;8.904;2024-02-23T03:04:39;97838.47;;;7.51;nan
60489;BME280;46331;49.252;8.904;2024-02-23T03:05:26;97828.47;;;7.54;nan
60489;BME280;46331;49.252;8.904;2024-02-23T03:06:07;97836.38;;;7.54;nan
60489;BME280;46331;49.252;8.904;2024-02-23T03:06:47;97833.47;;;7.50;nan
60489;BME280;46331;49.252;8.904;2024-02-23T03:07:28;97829.00;;;7.56;nan
60489;BME280;46331;49.252;8.904;2024-02-23T03:08:10;97821.59;;;7.58;nan
60489;BME280;46331;49.252;8.904;2024-02-23T03:08:50;97825.03;;;7.53;nan
60489;BME280;46331;49.252;8.904;2024-02-23T03:09:31;97826.88;;;7.58;nan
60489;BME280;46331;49.252;8.904;2024-02-23T03:10:11;97836.09;;;7.60;nan
60489;BME280;46331;49.252;8.904;2024-02-23T03:10:52;97826.88;;;7.58;nan
60489;BME280;46331;49.252;8.904;2024-02-23T03:11:33;97826.06;;;7.62;nan
60489;BME280;46331;49.252;8.904;2024-02-23T03:12:14;97827.41;;;7.60;nan
60489;BME280;46331;49.252;8.904;2024-02-23T03:12:54;97830.03;;;7.55;nan
60489;BME280;46331;49.252;8.904;2024-02-23T03:13:35;97827.41;;;7.44;nan
60489;BME280;46331;49.252;8.904;2024-02-23T03:14:15;97829.53;;;7.47;nan
60489;BME280;46331;49.252;8.904;2024-02-23T03:14:58;97830.28;;;7.53;nan
60489;BME280;46331;49.252;8.904;2024-02-23T03:15:39;97826.88;;;7.52;nan
60489;BME280;46331;49.252;8.904;2024-02-23T03:16:20;97838.50;;;7.57;nan
60489;BME280;46331;49.252;8.904;2024-02-23T03:17:03;97841.13;;;7.51;nan
60489;BME280;46331;49.252;8.904;2024-02-23T03:17:44;97835.56;;;7.53;nan
60489;BME280;46331;49.252;8.904;2024-02-23T03:18:24;97838.47;;;7.51;nan
60489;BME280;46331;49.252;8.904;2024-02-23T03:19:07;97835.56;;;7.53;nan
60489;BME280;46331;49.252;8.904;2024-02-23T03:19:48;97829.50;;;7.52;nan
60489;BME280;46331;49.252;8.904;2024-02-23T03:20:30;97829.50;;;7.52;nan
60489;BME280;46331;49.252;8.904;2024-02-23T03:21:11;97838.22;;;7.53;nan
60489;BME280;46331;49.252;8.904;2024-02-23T03:21:51;97836.38;;;7.54;nan
60489;BME280;46331;49.252;8.904;2024-02-23T03:22:32;97846.66;;;7.50;nan
60489;BME280;46331;49.252;8.904;2024-02-23T03:23:12;97846.94;;;7.54;nan
60489;BME280;46331;49.252;8.904;2024-02-23T03:23:53;97840.59;;;7.49;nan
60489;BME280;46331;49.252;8.904;2024-02-23T03:24:34;97833.47;;;7.55;nan
60489;BME280;46331;49.252;8.904;2024-02-23T03:25:15;97844.03;;;7.55;nan
60489;BME280;46331;49.252;8.904;2024-02-23T03:25:55;97835.56;;;7.53;nan
60489;BME280;46331;49.252;8.904;2024-02-23T03:26:36;97836.63;;;7.47;nan
60489;BME280;46331;49.252;8.904;2024-02-23T03:27:16;97829.50;;;7.52;nan
60489;BME280;46331;49.252;8.904;2024-02-23T03:27:57;97827.41;;;7.49;nan
60489;BME280;46331;49.252;8.904;2024-02-23T03:28:37;97819.75;;;7.32;nan
60489;BME280;46331;49.252;8.904;2024-02-23T03:29:18;97834.53;;;7.39;nan
60489;BME280;46331;49.252;8.904;2024-02-23T03:29:59;97824.78;;;7.44;nan
60489;BME280;46331;49.252;8.904;2024-02-23T03:30:39;97826.34;;;7.50;nan
60489;BME280;46331;49.252;8.904;2024-02-23T03:31:20;97841.91;;;7.47;nan
60489;BME280;46331;49.252;8.904;2024-02-23T03:32:00;97836.91;;;7.50;nan
60489;BME280;46331;49.252;8.904;2024-02-23T03:32:41;97843.47;;;7.53;nan
60489;BME280;46331;49.252;8.904;2024-02-23T03:33:22;97837.44;;;7.47;nan
60489;BME280;46331;49.252;8.904;2024-02-23T03:34:03;97836.38;;;7.54;nan
60489;BME280;46331;49.252;8.904;2024-02-23T03:34:43;97836.91;;;7.50;nan
60489;BME280;46331;49.252;8.904;2024-02-23T03:35:24;97835.56;;;7.38;nan
60489;BME280;46331;49.252;8.904;2024-02-23T03:36:05;97829.00;;;7.50;nan
60489;BME280;46331;49.252;8.904;2024-02-23T03:36:45;97834.81;;;7.47;nan
60489;BME280;46331;49.252;8.904;2024-02-23T03:37:26;97842.19;;;7.50;nan
60489;BME280;46331;49.252;8.904;2024-02-23T03:38:07;97823.19;;;7.54;nan
60489;BME280;46331;49.252;8.904;2024-02-23T03:38:48;97825.28;;;7.51;nan
60489;BME280;46331;49.252;8.904;2024-02-23T03:39:29;97822.66;;;7.51;nan
60489;BME280;46331;49.252;8.904;2024-02-23T03:40:10;97823.47;;;7.52;nan
60489;BME280;46331;49.252;8.904;2024-02-23T03:40:51;97830.03;;;7.49;nan
60489;BME280;46331;49.252;8.904;2024-02-23T03:41:31;97830.03;;;7.49;nan
60489;BME280;46331;49.252;8.904;2024-02-23T03:42:12;97836.63;;;7.47;nan
60489;BME280;46331;49.252;8.904;2024-02-23T03:42:52;97827.41;;;7.49;nan
60489;BME280;46331;49.252;8.904;2024-02-23T03:43:33;97837.97;;;7.49;nan
60489;BME280;46331;49.252;8.904;2024-02-23T03:44:14;97830.56;;;7.51;nan
60489;BME280;46331;49.252;8.904;2024-02-23T03:44:54;97828.97;;;7.45;nan
60489;BME280;46331;49.252;8.904;2024-02-23T03:45:35;97833.22;;;7.41;nan
60489;BME280;46331;49.252;8.904;2024-02-23T03:46:15;97832.16;;;7.37;nan